09IN weather

Gordon Airport
Columbia City, Indiana, United States

Public forecast

Using degrees Fahrenheit for public forecast. Weather courtesy of forecast.io.

Closest aviation weather report (METAR) to Gordon Airport

Closest report is Fort Wayne International Airport, 13.5 nm (24.9 km) SE. Retrieved 2020/02/24 00:54 UTC (37 minutes ago):

KFWA 240054Z 21009KT 10SM FEW200 02/M02 A3000 RMK AO2 SLP165 T00221017

Closest aviation forecast (TAF) to Gordon Airport

Closest forecast is Fort Wayne International Airport, 13.5 nm (24.9 km) SE. Retrieved 2020-02-24 00:27 UTC (1 hour ago):

TAF KFWA 232324Z 2400/2424 23007KT P6SM FEW200 FM241000 24004KT P6SM BKN200 FM241200 20003KT 4SM BR BKN005 FM241400 14004KT 3SM BR VCSH BKN004 FM241800 09006KT 3SM -RA OVC005